Time;durP1;ratioP1;P1;durP2;ratioP2;P2;SDS_P1;SDS_P2;PMS_P1;PMS_P2;Temp;Humidity;BMP_temperature;BMP_pressure;BME280_temperature;BME280_humidity;BME280_pressure;Samples;Min_cycle;Max_cycle;Signal;HPM_P1;HPM_P2
2024/02/14 00:01:25;;;;;;;10.27;4.85;;;9.80;96.70;;;;;;4916401;29;20056;-70
2024/02/14 00:03:59;;;;;;;22.30;11.98;;;9.80;96.70;;;;;;4910515;29;20174;-70
2024/02/14 00:06:28;;;;;;;27.52;13.85;;;9.80;96.70;;;;;;4878534;29;20603;-70
2024/02/14 00:08:57;;;;;;;39.65;20.67;;;9.70;96.70;;;;;;4910585;29;20043;-70
2024/02/14 00:11:26;;;;;;;27.38;12.95;;;9.80;96.70;;;;;;4904372;29;21317;-71
2024/02/14 00:13:56;;;;;;;23.08;11.70;;;9.50;96.70;;;;;;4900487;29;20051;-69
2024/02/14 00:16:30;;;;;;;20.42;10.20;;;9.40;96.70;;;;;;4895117;29;20048;-70
2024/02/14 00:19:02;;;;;;;12.90;7.78;;;9.40;96.70;;;;;;4878635;29;20061;-69
2024/02/14 00:21:32;;;;;;;12.38;6.90;;;9.30;96.70;;;;;;4867539;29;20521;-69
2024/02/14 00:24:05;;;;;;;11.48;6.80;;;9.40;96.70;;;;;;4895858;29;20068;-70
2024/02/14 00:26:34;;;;;;;9.35;5.47;;;9.50;96.70;;;;;;4878228;29;20060;-69
2024/02/14 00:29:08;;;;;;;9.18;5.22;;;9.40;96.70;;;;;;4881938;29;20060;-70
2024/02/14 00:31:38;;;;;;;7.03;5.07;;;9.40;96.70;;;;;;4873829;29;20060;-69
2024/02/14 00:34:10;;;;;;;7.07;4.38;;;9.40;96.70;;;;;;4892761;29;20438;-70
2024/02/14 00:36:40;;;;;;;7.43;4.57;;;9.30;96.70;;;;;;4891544;29;20052;-70
2024/02/14 00:39:09;;;;;;;6.22;4.10;;;9.30;96.70;;;;;;4886985;29;20045;-70
2024/02/14 00:41:38;;;;;;;7.78;4.22;;;9.30;96.70;;;;;;4890334;29;20088;-69
2024/02/14 00:44:10;;;;;;;7.72;3.17;;;9.30;96.70;;;;;;4881636;29;20132;-69
2024/02/14 00:46:40;;;;;;;6.65;3.20;;;9.20;96.70;;;;;;4883184;29;20458;-70
2024/02/14 00:49:12;;;;;;;5.55;2.75;;;9.20;96.70;;;;;;4893343;29;20424;-70
2024/02/14 00:51:43;;;;;;;4.90;2.63;;;9.10;96.70;;;;;;4877129;29;20080;-70
2024/02/14 00:54:12;;;;;;;6.53;2.80;;;9.10;96.70;;;;;;4883471;29;20448;-70
2024/02/14 00:56:47;;;;;;;6.22;2.60;;;9.00;96.70;;;;;;4880952;29;20053;-70
2024/02/14 00:59:18;;;;;;;5.60;2.30;;;9.00;96.70;;;;;;4893404;29;20765;-70
2024/02/14 01:01:47;;;;;;;5.10;2.60;;;9.00;96.70;;;;;;4891366;29;20068;-69
2024/02/14 01:04:18;;;;;;;6.38;2.90;;;9.00;96.70;;;;;;4890067;29;20509;-69
2024/02/14 01:06:49;;;;;;;4.20;2.40;;;9.00;96.70;;;;;;4862964;29;20057;-69
2024/02/14 01:09:21;;;;;;;4.75;2.45;;;9.00;96.70;;;;;;4906409;29;20061;-70
2024/02/14 01:11:51;;;;;;;5.45;2.20;;;9.00;96.70;;;;;;4888110;29;20108;-69
2024/02/14 01:14:22;;;;;;;3.88;2.47;;;8.90;96.70;;;;;;4884957;29;20594;-69
2024/02/14 01:16:53;;;;;;;5.30;2.70;;;8.90;96.70;;;;;;4891624;29;20049;-69
2024/02/14 01:19:28;;;;;;;3.97;2.53;;;8.90;96.70;;;;;;4887374;29;20060;-69
2024/02/14 01:21:57;;;;;;;5.78;2.63;;;9.00;96.70;;;;;;4894092;29;20064;-69
2024/02/14 01:24:30;;;;;;;3.42;2.25;;;9.00;96.70;;;;;;4883631;29;20511;-69
2024/02/14 01:27:00;;;;;;;3.60;2.15;;;8.90;96.70;;;;;;4895739;29;20048;-69
2024/02/14 01:29:29;;;;;;;4.50;2.90;;;8.90;96.70;;;;;;4902817;29;20817;-70
2024/02/14 01:31:57;;;;;;;5.32;3.35;;;8.80;96.70;;;;;;4897579;29;20075;-70
2024/02/14 01:34:30;;;;;;;7.78;4.13;;;8.90;96.70;;;;;;4913497;29;20189;-70
2024/02/14 01:37:00;;;;;;;5.45;3.33;;;8.90;96.70;;;;;;4894578;29;20147;-69
2024/02/14 01:39:30;;;;;;;5.57;4.30;;;8.90;96.70;;;;;;4907994;29;20040;-70
2024/02/14 01:42:05;;;;;;;6.30;3.88;;;8.80;96.70;;;;;;4915392;29;20615;-69
2024/02/14 01:44:36;;;;;;;7.25;4.10;;;8.80;96.70;;;;;;4900257;29;20045;-69
2024/02/14 01:47:06;;;;;;;6.13;4.32;;;8.80;96.70;;;;;;4901604;29;20245;-70
2024/02/14 01:49:40;;;;;;;8.85;5.15;;;8.90;96.70;;;;;;4899068;29;20052;-69
2024/02/14 01:52:09;;;;;;;6.05;3.92;;;8.80;96.70;;;;;;4884478;29;20056;-70
2024/02/14 01:54:38;;;;;;;7.05;4.35;;;9.00;96.70;;;;;;4880753;29;20045;-69
2024/02/14 01:57:11;;;;;;;7.57;4.57;;;9.20;96.70;;;;;;4894922;29;20413;-69
2024/02/14 01:59:41;;;;;;;8.60;4.32;;;9.10;96.70;;;;;;4898556;29;20044;-70
2024/02/14 02:02:11;;;;;;;5.35;3.92;;;9.00;96.70;;;;;;4899038;29;20060;-69
2024/02/14 02:04:42;;;;;;;8.18;4.18;;;8.90;96.70;;;;;;4897735;29;20061;-69
2024/02/14 02:07:12;;;;;;;5.88;3.75;;;8.80;96.70;;;;;;4909029;29;20108;-69
2024/02/14 02:09:44;;;;;;;4.72;3.60;;;8.70;96.70;;;;;;4895466;29;20393;-69
2024/02/14 02:12:13;;;;;;;8.02;4.15;;;8.70;96.70;;;;;;4893280;29;20434;-69
2024/02/14 02:14:43;;;;;;;7.97;4.32;;;8.70;96.70;;;;;;4898347;29;20056;-69
2024/02/14 02:17:12;;;;;;;9.25;4.40;;;8.70;96.70;;;;;;4896109;29;20064;-69
2024/02/14 02:19:43;;;;;;;5.70;4.15;;;8.60;96.70;;;;;;4882783;29;20120;-69
2024/02/14 02:22:12;;;;;;;6.32;4.65;;;8.50;96.70;;;;;;4881090;29;20060;-69
2024/02/14 02:24:44;;;;;;;5.30;3.22;;;8.50;96.70;;;;;;4886432;29;20544;-69
2024/02/14 02:27:16;;;;;;;6.82;3.47;;;8.60;96.70;;;;;;4875334;29;20220;-69
2024/02/14 02:29:45;;;;;;;5.28;2.90;;;8.50;96.70;;;;;;4886208;29;20151;-69
2024/02/14 02:32:16;;;;;;;3.83;2.72;;;8.50;96.70;;;;;;4882081;29;20187;-69
2024/02/14 02:34:45;;;;;;;5.65;2.50;;;8.50;96.70;;;;;;4879153;29;20101;-69
2024/02/14 02:37:16;;;;;;;4.30;2.40;;;8.50;96.70;;;;;;4877910;29;20151;-69
2024/02/14 02:39:51;;;;;;;4.32;2.63;;;8.60;96.70;;;;;;4873053;29;20045;-69
2024/02/14 02:42:20;;;;;;;5.63;2.60;;;8.60;96.70;;;;;;4876845;29;20061;-69
2024/02/14 02:44:51;;;;;;;6.13;2.60;;;8.60;96.70;;;;;;4873400;29;20048;-69
2024/02/14 02:47:19;;;;;;;6.72;2.63;;;8.50;96.70;;;;;;4888683;29;20129;-69
2024/02/14 02:49:51;;;;;;;4.57;2.70;;;8.40;96.70;;;;;;4891580;29;20072;-69
2024/02/14 02:52:22;;;;;;;3.92;2.35;;;8.50;96.70;;;;;;4899077;29;20056;-69
2024/02/14 02:54:53;;;;;;;5.22;2.45;;;8.50;96.70;;;;;;4876437;29;20077;-69
2024/02/14 02:57:23;;;;;;;6.03;2.38;;;8.50;96.70;;;;;;4895017;29;20092;-69
2024/02/14 02:59:53;;;;;;;5.30;2.15;;;8.40;96.70;;;;;;4889756;29;20055;-69
2024/02/14 03:02:25;;;;;;;8.70;2.53;;;8.40;96.70;;;;;;4890443;29;20060;-69
2024/02/14 03:04:54;;;;;;;4.57;2.50;;;8.40;96.70;;;;;;4866582;29;20056;-69
2024/02/14 03:07:24;;;;;;;2.92;2.03;;;8.40;96.70;;;;;;4882492;29;20131;-69
2024/02/14 03:09:55;;;;;;;3.28;1.90;;;8.30;96.70;;;;;;4889728;29;20037;-68
2024/02/14 03:12:28;;;;;;;3.50;2.10;;;8.30;96.70;;;;;;4891109;29;20574;-69
2024/02/14 03:14:58;;;;;;;4.35;1.88;;;8.30;96.70;;;;;;4890405;29;20104;-69
2024/02/14 03:17:28;;;;;;;3.13;1.92;;;8.20;96.70;;;;;;4895526;29;20055;-68
2024/02/14 03:19:57;;;;;;;2.92;2.17;;;8.10;96.70;;;;;;4912497;29;20048;-69
2024/02/14 03:22:26;;;;;;;2.65;1.60;;;8.10;96.70;;;;;;4913675;29;20051;-69
2024/02/14 03:24:57;;;;;;;2.92;1.58;;;8.10;96.70;;;;;;4887502;29;20060;-69
2024/02/14 03:27:27;;;;;;;3.75;2.20;;;8.10;96.70;;;;;;4919484;29;20056;-69
2024/02/14 03:29:58;;;;;;;2.60;1.50;;;8.10;96.70;;;;;;4909889;29;20052;-69
2024/02/14 03:32:27;;;;;;;3.95;1.90;;;8.10;96.70;;;;;;4903760;29;20078;-69
2024/02/14 03:34:55;;;;;;;3.50;2.05;;;8.00;96.70;;;;;;4902208;29;20072;-69
2024/02/14 03:37:25;;;;;;;2.03;1.55;;;8.00;96.70;;;;;;4922450;29;20056;-69
2024/02/14 03:39:55;;;;;;;2.55;2.03;;;8.00;96.70;;;;;;4896022;29;20051;-69
2024/02/14 03:42:26;;;;;;;3.97;1.77;;;8.00;96.70;;;;;;4896852;29;20059;-69
2024/02/14 03:45:02;;;;;;;3.63;1.90;;;8.00;96.70;;;;;;4906930;29;20083;-69
2024/02/14 03:47:37;;;;;;;1.90;1.55;;;7.90;96.70;;;;;;4897644;29;20500;-68
2024/02/14 03:50:07;;;;;;;3.72;1.65;;;7.80;96.70;;;;;;4899190;29;20098;-69
2024/02/14 03:52:37;;;;;;;2.65;1.52;;;7.90;96.70;;;;;;4911802;29;20059;-69
2024/02/14 03:55:08;;;;;;;4.28;1.45;;;7.90;96.70;;;;;;4923716;29;20146;-69
2024/02/14 03:57:39;;;;;;;1.85;1.63;;;7.80;96.70;;;;;;4906079;29;20150;-69
2024/02/14 04:00:12;;;;;;;3.42;1.92;;;7.80;96.70;;;;;;4894663;29;20098;-69
2024/02/14 04:02:41;;;;;;;2.80;1.92;;;7.70;96.70;;;;;;4912427;29;20521;-68
2024/02/14 04:05:11;;;;;;;3.22;1.90;;;7.70;96.70;;;;;;4919835;29;20055;-69
2024/02/14 04:07:40;;;;;;;3.35;2.22;;;7.60;96.70;;;;;;4915119;29;20142;-69
2024/02/14 04:10:09;;;;;;;2.72;2.30;;;7.60;96.70;;;;;;4909231;29;20044;-69
2024/02/14 04:12:43;;;;;;;4.47;2.40;;;7.60;96.70;;;;;;4895473;29;20067;-68
2024/02/14 04:15:12;;;;;;;4.20;2.22;;;7.60;96.70;;;;;;4913430;29;20067;-69
2024/02/14 04:17:42;;;;;;;3.55;2.55;;;7.50;96.70;;;;;;4896152;29;20119;-68
2024/02/14 04:20:11;;;;;;;3.63;2.55;;;7.50;96.70;;;;;;4895847;29;20055;-69
2024/02/14 04:22:43;;;;;;;4.85;2.70;;;7.40;96.70;;;;;;4924432;29;20055;-69
2024/02/14 04:25:12;;;;;;;4.63;2.90;;;7.50;96.70;;;;;;4911054;29;20062;-69
2024/02/14 04:27:45;;;;;;;3.42;2.40;;;7.60;96.70;;;;;;4907648;29;20119;-68
2024/02/14 04:30:14;;;;;;;3.97;2.83;;;7.50;96.70;;;;;;4897628;29;20048;-69
2024/02/14 04:32:43;;;;;;;4.07;2.97;;;7.40;96.70;;;;;;4910453;29;20055;-69
2024/02/14 04:35:14;;;;;;;4.55;3.15;;;7.50;96.70;;;;;;4907887;29;20048;-68
2024/02/14 04:37:46;;;;;;;5.60;2.95;;;7.50;96.70;;;;;;4912188;29;20047;-68
2024/02/14 04:40:15;;;;;;;4.20;2.53;;;7.50;96.70;;;;;;4900749;29;20095;-68
2024/02/14 04:42:46;;;;;;;3.80;2.70;;;7.50;96.70;;;;;;4926278;29;20075;-68
2024/02/14 04:45:15;;;;;;;4.05;2.40;;;7.50;96.70;;;;;;4918828;29;20063;-68
2024/02/14 04:47:45;;;;;;;5.18;2.90;;;7.50;96.70;;;;;;4891961;29;20310;-68
2024/02/14 04:50:14;;;;;;;4.03;3.00;;;7.50;96.70;;;;;;4890525;29;20047;-68
2024/02/14 04:52:44;;;;;;;5.13;3.10;;;7.40;96.70;;;;;;4911358;29;20051;-68
2024/02/14 04:55:13;;;;;;;5.88;2.80;;;7.40;96.70;;;;;;4902835;29;20516;-69
2024/02/14 04:57:43;;;;;;;5.13;3.17;;;7.40;96.70;;;;;;4913528;29;20563;-68
2024/02/14 05:00:16;;;;;;;3.67;2.70;;;7.40;96.70;;;;;;4894969;29;20056;-69
2024/02/14 05:02:47;;;;;;;4.63;2.95;;;7.40;96.70;;;;;;4910586;29;20075;-70
2024/02/14 05:05:17;;;;;;;3.90;2.80;;;7.30;96.70;;;;;;4907118;29;20065;-68
2024/02/14 05:07:47;;;;;;;3.85;2.90;;;7.30;96.70;;;;;;4897317;29;20481;-68
2024/02/14 05:10:17;;;;;;;5.28;2.80;;;7.30;96.70;;;;;;4908642;29;20853;-69
2024/02/14 05:12:48;;;;;;;4.65;3.17;;;7.30;96.70;;;;;;4900723;29;20075;-68
2024/02/14 05:15:21;;;;;;;3.55;2.70;;;7.30;96.70;;;;;;4895746;29;20555;-68
2024/02/14 05:17:52;;;;;;;4.28;2.72;;;7.30;96.70;;;;;;4920450;29;20060;-68
2024/02/14 05:20:21;;;;;;;4.00;3.00;;;7.30;96.70;;;;;;4897890;29;20040;-68
2024/02/14 05:22:52;;;;;;;4.50;2.78;;;7.30;96.70;;;;;;4926541;29;20146;-68
2024/02/14 05:25:20;;;;;;;4.45;2.65;;;7.30;96.70;;;;;;4885653;29;20074;-68
2024/02/14 05:27:50;;;;;;;4.20;2.97;;;7.20;96.70;;;;;;4869562;29;20059;-68
2024/02/14 05:30:20;;;;;;;4.00;3.47;;;7.10;96.70;;;;;;4905773;29;20107;-68
2024/02/14 05:32:52;;;;;;;4.07;2.55;;;7.20;96.70;;;;;;4908761;29;20047;-68
2024/02/14 05:35:24;;;;;;;3.42;2.55;;;7.20;96.70;;;;;;4906811;29;20076;-68
2024/02/14 05:37:54;;;;;;;3.28;2.17;;;7.20;96.70;;;;;;4904447;29;20150;-68
2024/02/14 05:40:25;;;;;;;4.10;2.08;;;7.10;96.70;;;;;;4897717;29;20509;-68
2024/02/14 05:42:56;;;;;;;3.08;2.20;;;7.10;96.70;;;;;;4914672;29;20106;-68
2024/02/14 05:45:28;;;;;;;2.60;1.95;;;7.00;96.70;;;;;;4900851;29;20063;-68
2024/02/14 05:47:58;;;;;;;4.22;1.80;;;7.00;96.70;;;;;;4922269;29;20166;-68
2024/02/14 05:50:28;;;;;;;4.63;1.92;;;7.00;96.70;;;;;;4898783;29;20139;-68
2024/02/14 05:52:57;;;;;;;2.67;1.65;;;7.00;96.70;;;;;;4908627;29;20146;-68
2024/02/14 05:55:28;;;;;;;3.45;1.95;;;6.90;96.70;;;;;;4913554;29;20110;-68
2024/02/14 05:57:58;;;;;;;4.40;2.15;;;6.90;96.70;;;;;;4911402;29;20787;-68
2024/02/14 06:00:30;;;;;;;4.10;2.50;;;6.80;96.70;;;;;;4896284;29;20086;-68
2024/02/14 06:02:59;;;;;;;11.15;6.38;;;6.80;96.70;;;;;;4886385;29;20071;-68
2024/02/14 06:05:29;;;;;;;21.88;11.18;;;6.70;96.70;;;;;;4929732;29;20444;-68
2024/02/14 06:07:59;;;;;;;19.60;10.52;;;6.70;96.70;;;;;;4905985;29;20051;-68
2024/02/14 06:10:30;;;;;;;17.17;8.00;;;6.70;96.70;;;;;;4899201;29;20062;-68
2024/02/14 06:13:00;;;;;;;14.40;8.70;;;6.70;96.70;;;;;;4913033;29;20113;-68
2024/02/14 06:15:32;;;;;;;11.13;5.38;;;6.60;96.70;;;;;;4894143;29;20146;-68
2024/02/14 06:18:02;;;;;;;6.93;4.10;;;6.70;96.70;;;;;;4905153;29;20063;-68
2024/02/14 06:20:32;;;;;;;5.55;3.08;;;6.70;96.70;;;;;;4920576;29;20087;-68
2024/02/14 06:23:01;;;;;;;5.20;2.67;;;6.80;96.70;;;;;;4906366;29;20054;-68
2024/02/14 06:25:33;;;;;;;4.93;2.50;;;6.80;96.70;;;;;;4926111;29;20062;-68
2024/02/14 06:28:02;;;;;;;5.07;2.58;;;6.80;96.70;;;;;;4907505;29;20079;-68
2024/02/14 06:30:33;;;;;;;4.07;2.17;;;6.80;96.70;;;;;;4921288;29;20044;-68
2024/02/14 06:33:04;;;;;;;4.60;2.40;;;6.80;96.70;;;;;;4913151;29;20051;-68
2024/02/14 06:35:33;;;;;;;3.90;2.47;;;6.70;96.70;;;;;;4906443;29;20103;-68
2024/02/14 06:38:05;;;;;;;3.92;2.33;;;6.70;96.70;;;;;;4897235;29;20093;-68
2024/02/14 06:40:35;;;;;;;8.25;2.58;;;6.70;96.70;;;;;;4928251;29;20135;-68
2024/02/14 06:43:06;;;;;;;5.35;2.88;;;6.80;96.70;;;;;;4889775;29;20139;-68
2024/02/14 06:45:36;;;;;;;7.85;3.63;;;6.80;96.70;;;;;;4910434;29;20051;-68
2024/02/14 06:48:08;;;;;;;6.10;2.80;;;6.70;96.70;;;;;;4912364;29;20835;-68
2024/02/14 06:50:40;;;;;;;7.85;3.63;;;6.80;96.70;;;;;;4912724;29;20686;-68
2024/02/14 06:53:11;;;;;;;11.75;4.40;;;6.90;96.70;;;;;;4923925;29;20056;-68
2024/02/14 06:55:41;;;;;;;11.13;4.75;;;6.90;96.70;;;;;;4914687;29;20501;-68
2024/02/14 06:58:13;;;;;;;10.70;4.00;;;6.80;96.70;;;;;;4908371;29;20060;-68
2024/02/14 07:00:44;;;;;;;8.10;3.78;;;6.90;96.70;;;;;;4892952;29;20150;-68
2024/02/14 07:03:13;;;;;;;5.43;3.00;;;7.00;96.70;;;;;;4920915;29;20055;-68
2024/02/14 07:05:43;;;;;;;5.70;3.00;;;6.90;96.70;;;;;;4890922;29;20064;-68
2024/02/14 07:08:13;;;;;;;6.35;2.67;;;6.90;96.70;;;;;;4902265;29;20084;-67
2024/02/14 07:10:43;;;;;;;4.22;2.83;;;7.00;96.70;;;;;;4902568;29;20099;-68
2024/02/14 07:13:13;;;;;;;7.65;3.10;;;7.10;96.70;;;;;;4896816;29;20508;-67
2024/02/14 07:15:47;;;;;;;7.13;4.20;;;7.10;96.70;;;;;;4919813;29;20091;-67
2024/02/14 07:18:16;;;;;;;9.30;4.57;;;7.20;96.70;;;;;;4928628;29;20059;-68
2024/02/14 07:20:48;;;;;;;8.23;4.50;;;7.20;96.70;;;;;;4896422;29;20057;-67
2024/02/14 07:23:20;;;;;;;8.63;4.38;;;7.20;96.70;;;;;;4902645;29;20055;-67
2024/02/14 07:25:49;;;;;;;8.50;3.95;;;7.20;96.70;;;;;;4891078;29;20075;-67
2024/02/14 07:28:18;;;;;;;5.45;3.70;;;7.30;96.70;;;;;;4909522;29;20052;-67
2024/02/14 07:30:50;;;;;;;7.32;3.70;;;7.30;96.70;;;;;;4914581;29;20055;-67
2024/02/14 07:33:21;;;;;;;4.85;2.95;;;7.40;96.70;;;;;;4921880;29;20074;-66
2024/02/14 07:35:50;;;;;;;4.93;2.85;;;7.40;96.70;;;;;;4897514;29;20106;-67
2024/02/14 07:38:19;;;;;;;3.53;2.55;;;7.50;96.70;;;;;;4908104;29;20725;-67
2024/02/14 07:40:48;;;;;;;4.88;2.90;;;7.50;96.70;;;;;;4901021;29;20402;-67
2024/02/14 07:43:18;;;;;;;6.00;3.05;;;7.50;96.70;;;;;;4896401;29;20112;-67
2024/02/14 07:45:51;;;;;;;5.63;3.08;;;7.50;96.70;;;;;;4901192;29;20051;-68
2024/02/14 07:48:20;;;;;;;7.20;3.35;;;7.50;96.70;;;;;;4914778;29;20550;-67
2024/02/14 07:50:48;;;;;;;5.57;3.22;;;7.60;96.70;;;;;;4908186;29;20035;-67
2024/02/14 07:53:18;;;;;;;9.05;3.53;;;7.60;96.70;;;;;;4924988;29;20104;-67
2024/02/14 07:55:47;;;;;;;8.80;4.88;;;7.60;96.70;;;;;;4899634;29;20056;-68
2024/02/14 07:58:16;;;;;;;7.47;4.13;;;7.70;96.70;;;;;;4896300;29;20056;-67
2024/02/14 08:00:46;;;;;;;6.05;3.88;;;7.80;96.70;;;;;;4904133;29;20118;-67
2024/02/14 08:03:17;;;;;;;8.48;4.00;;;7.90;96.70;;;;;;4891899;29;20083;-67
2024/02/14 08:05:48;;;;;;;10.70;4.38;;;7.80;96.70;;;;;;4923281;29;20142;-67
2024/02/14 08:08:20;;;;;;;6.50;3.88;;;7.80;96.70;;;;;;4893542;29;20584;-67
2024/02/14 08:10:49;;;;;;;6.05;4.03;;;7.90;96.70;;;;;;4878719;29;20599;-67
2024/02/14 08:13:19;;;;;;;6.47;3.83;;;7.90;96.70;;;;;;4906335;29;20043;-67
2024/02/14 08:15:49;;;;;;;7.55;4.90;;;8.00;96.70;;;;;;4897524;29;20127;-67
2024/02/14 08:18:20;;;;;;;6.60;4.28;;;8.10;96.70;;;;;;4903533;29;20068;-67
2024/02/14 08:20:51;;;;;;;8.82;5.40;;;8.10;96.70;;;;;;4905988;29;20044;-68
2024/02/14 08:23:22;;;;;;;9.60;3.70;;;8.10;96.70;;;;;;4891821;29;20060;-67
2024/02/14 08:25:51;;;;;;;9.82;4.50;;;8.20;96.70;;;;;;4923481;29;20056;-68
2024/02/14 08:28:20;;;;;;;7.78;4.20;;;8.30;96.70;;;;;;4893583;29;20409;-67
2024/02/14 08:30:51;;;;;;;7.22;4.50;;;8.30;96.70;;;;;;4893889;29;20481;-67
2024/02/14 08:33:23;;;;;;;7.63;4.32;;;8.40;96.70;;;;;;4893081;29;20084;-67
2024/02/14 08:35:57;;;;;;;8.25;4.47;;;8.50;96.70;;;;;;4903469;29;20142;-67
2024/02/14 08:38:26;;;;;;;7.85;4.25;;;8.50;96.70;;;;;;4924158;29;20060;-67
2024/02/14 08:40:57;;;;;;;7.00;4.78;;;8.60;96.70;;;;;;4893333;29;20475;-67
2024/02/14 08:43:28;;;;;;;7.93;4.35;;;8.80;96.70;;;;;;4911821;29;20521;-67
2024/02/14 08:45:58;;;;;;;8.10;4.10;;;8.80;96.70;;;;;;4906146;29;20060;-67
2024/02/14 08:48:34;;;;;;;8.98;4.45;;;8.90;96.70;;;;;;4889476;29;20053;-67
2024/02/14 08:51:06;;;;;;;5.47;3.75;;;9.00;96.70;;;;;;4907702;29;20072;-67
2024/02/14 08:53:36;;;;;;;6.40;4.65;;;9.10;96.70;;;;;;4892078;29;20267;-67
2024/02/14 08:56:06;;;;;;;7.85;5.20;;;9.20;96.70;;;;;;4900356;29;20060;-67
2024/02/14 08:58:38;;;;;;;10.65;5.53;;;9.20;96.70;;;;;;4905595;29;20067;-67
2024/02/14 09:01:09;;;;;;;8.02;4.88;;;9.30;96.70;;;;;;4917953;29;20056;-67
2024/02/14 09:03:47;;;;;;;8.32;5.15;;;9.40;96.70;;;;;;4894342;29;20104;-67
2024/02/14 09:06:18;;;;;;;6.72;4.22;;;9.40;96.70;;;;;;4891896;29;20092;-67
2024/02/14 09:08:50;;;;;;;8.13;5.30;;;9.50;96.70;;;;;;4915491;29;20063;-67
2024/02/14 09:11:20;;;;;;;6.68;4.38;;;9.60;96.70;;;;;;4910135;29;20470;-67
2024/02/14 09:13:50;;;;;;;7.70;4.65;;;9.70;96.70;;;;;;4911958;29;20048;-67
2024/02/14 09:16:22;;;;;;;8.43;5.05;;;9.80;96.70;;;;;;4906602;29;20060;-67
2024/02/14 09:18:53;;;;;;;7.97;4.90;;;9.90;96.70;;;;;;4895706;29;20083;-67
2024/02/14 09:21:22;;;;;;;8.52;4.65;;;9.90;96.70;;;;;;4899191;29;20143;-67
2024/02/14 09:23:51;;;;;;;8.23;4.97;;;10.00;96.70;;;;;;4901625;29;20162;-67
2024/02/14 09:26:22;;;;;;;8.27;5.03;;;10.10;96.70;;;;;;4913438;29;20136;-68
2024/02/14 09:28:51;;;;;;;7.85;5.18;;;10.30;96.70;;;;;;4918414;29;20059;-67
2024/02/14 09:31:22;;;;;;;6.30;4.65;;;10.40;96.70;;;;;;4917684;29;20201;-67
2024/02/14 09:33:56;;;;;;;7.07;4.88;;;10.50;96.70;;;;;;4918450;29;20059;-68
2024/02/14 09:36:27;;;;;;;7.55;4.70;;;10.60;96.70;;;;;;4903036;29;20063;-68
2024/02/14 09:38:57;;;;;;;7.78;4.93;;;10.70;96.70;;;;;;4910150;29;20387;-67
2024/02/14 09:41:36;;;;;;;6.50;4.35;;;10.80;96.70;;;;;;4896375;29;20075;-67
2024/02/14 09:44:07;;;;;;;7.68;4.82;;;10.90;96.70;;;;;;4906838;29;20266;-67
2024/02/14 09:46:39;;;;;;;5.90;4.15;;;11.10;96.70;;;;;;4905409;29;20060;-68
2024/02/14 09:49:14;;;;;;;8.48;4.32;;;11.20;96.70;;;;;;4912119;29;20060;-67
2024/02/14 09:51:47;;;;;;;7.10;4.05;;;11.30;96.70;;;;;;4917950;29;20100;-67
2024/02/14 09:54:20;;;;;;;7.38;4.63;;;11.40;96.70;;;;;;4903597;29;20091;-68
2024/02/14 09:56:53;;;;;;;7.00;4.35;;;11.50;96.70;;;;;;4905649;29;20513;-67
2024/02/14 09:59:24;;;;;;;7.35;4.53;;;11.60;96.70;;;;;;4901254;29;20048;-68
2024/02/14 10:01:55;;;;;;;6.38;4.60;;;11.70;96.70;;;;;;4925657;29;20059;-68
2024/02/14 10:04:26;;;;;;;6.05;4.22;;;11.70;96.70;;;;;;4922993;29;20056;-68
2024/02/14 10:06:58;;;;;;;6.60;4.43;;;11.80;96.70;;;;;;4904764;29;20056;-68
2024/02/14 10:09:29;;;;;;;8.50;4.72;;;12.00;96.70;;;;;;4903348;29;20147;-68
2024/02/14 10:12:01;;;;;;;5.78;4.13;;;12.10;96.70;;;;;;4887107;29;20071;-68
2024/02/14 10:14:32;;;;;;;7.97;4.75;;;12.20;96.70;;;;;;4892898;29;20471;-68
2024/02/14 10:17:03;;;;;;;6.68;4.97;;;12.20;96.70;;;;;;4910810;29;20056;-68
2024/02/14 10:19:34;;;;;;;5.82;4.60;;;12.40;96.70;;;;;;4899728;29;20183;-68
2024/02/14 10:22:05;;;;;;;6.43;4.80;;;12.50;96.70;;;;;;4882351;29;20048;-68
2024/02/14 10:24:35;;;;;;;6.88;4.32;;;12.50;96.70;;;;;;4860110;29;20081;-68
2024/02/14 10:27:08;;;;;;;7.43;4.97;;;12.50;96.70;;;;;;4868521;29;20072;-67
2024/02/14 10:29:39;;;;;;;7.78;4.50;;;12.60;96.70;;;;;;4906772;29;20056;-68
2024/02/14 10:32:08;;;;;;;7.68;5.13;;;12.60;96.70;;;;;;4876655;29;20060;-67
2024/02/14 10:34:40;;;;;;;9.85;5.00;;;12.70;96.70;;;;;;4888810;29;20164;-68
2024/02/14 10:37:10;;;;;;;7.65;4.68;;;12.80;96.70;;;;;;4860947;29;20057;-68
2024/02/14 10:39:43;;;;;;;7.30;4.90;;;13.00;96.70;;;;;;4867242;29;20057;-68
2024/02/14 10:42:13;;;;;;;7.43;4.55;;;13.20;96.70;;;;;;4907248;29;20131;-68
2024/02/14 10:44:45;;;;;;;7.18;4.50;;;13.30;96.70;;;;;;4900359;29;20075;-68
2024/02/14 10:47:19;;;;;;;6.65;4.10;;;13.40;96.70;;;;;;4868012;29;20115;-68
2024/02/14 10:49:51;;;;;;;9.25;4.90;;;13.40;96.70;;;;;;4899238;29;20060;-69
2024/02/14 10:52:22;;;;;;;8.73;4.35;;;13.60;96.70;;;;;;4893002;29;20109;-68
2024/02/14 10:54:56;;;;;;;6.88;4.03;;;13.50;96.70;;;;;;4889942;29;20143;-69
2024/02/14 10:57:26;;;;;;;8.80;5.00;;;13.60;96.70;;;;;;4892499;29;20053;-69
2024/02/14 10:59:56;;;;;;;7.18;4.57;;;13.70;96.70;;;;;;4891426;29;20451;-69
2024/02/14 11:02:26;;;;;;;6.43;4.45;;;13.80;96.70;;;;;;4862804;29;20106;-70
2024/02/14 11:05:00;;;;;;;8.18;4.50;;;13.90;96.70;;;;;;4883216;29;20423;-70
2024/02/14 11:07:31;;;;;;;5.47;3.90;;;14.10;96.70;;;;;;4888305;29;20052;-68
2024/02/14 11:10:07;;;;;;;8.55;4.30;;;14.10;96.70;;;;;;4909230;29;20148;-69
2024/02/14 11:12:38;;;;;;;5.88;3.72;;;14.30;96.70;;;;;;4884368;29;20056;-70
2024/02/14 11:15:13;;;;;;;5.75;3.85;;;14.30;96.70;;;;;;4883137;29;20059;-69
2024/02/14 11:17:44;;;;;;;6.32;4.32;;;14.20;96.70;;;;;;4894309;29;20075;-69
2024/02/14 11:20:17;;;;;;;6.70;3.80;;;14.10;96.70;;;;;;4876986;29;20075;-69
2024/02/14 11:22:57;;;;;;;4.72;3.38;;;14.20;96.70;;;;;;4902832;29;20135;-69
2024/02/14 11:25:34;;;;;;;6.43;4.13;;;14.30;96.70;;;;;;4892369;29;20048;-69
2024/02/14 11:28:14;;;;;;;6.70;4.18;;;14.40;96.70;;;;;;4899339;29;20052;-69
2024/02/14 11:30:44;;;;;;;7.07;4.15;;;14.50;96.70;;;;;;4895435;29;20056;-69
2024/02/14 11:33:18;;;;;;;4.60;3.58;;;14.60;96.70;;;;;;4887782;29;20060;-69
2024/02/14 11:35:51;;;;;;;5.57;3.72;;;14.70;96.70;;;;;;4907278;29;20054;-70
2024/02/14 11:38:22;;;;;;;5.35;3.60;;;14.70;96.70;;;;;;4885528;29;20090;-69
2024/02/14 11:40:50;;;;;;;7.30;3.97;;;14.80;96.70;;;;;;4899418;29;20040;-69
2024/02/14 11:43:21;;;;;;;6.78;3.63;;;14.90;96.70;;;;;;4910162;29;20191;-70
2024/02/14 11:45:52;;;;;;;6.82;3.67;;;15.00;96.70;;;;;;4924030;29;20044;-70
2024/02/14 11:48:23;;;;;;;6.78;3.97;;;15.10;96.70;;;;;;4919133;29;20048;-70
2024/02/14 11:50:55;;;;;;;6.38;4.50;;;15.20;96.70;;;;;;4906577;29;20136;-70
2024/02/14 11:53:28;;;;;;;9.35;4.22;;;15.30;96.70;;;;;;4889298;29;20140;-70
2024/02/14 11:55:59;;;;;;;8.80;6.00;;;15.40;96.70;;;;;;4894842;29;20059;-70
2024/02/14 11:58:31;;;;;;;7.75;4.50;;;15.60;96.70;;;;;;4900430;29;20080;-70
2024/02/14 12:01:05;;;;;;;6.53;4.50;;;15.70;96.70;;;;;;4918141;29;20056;-70
2024/02/14 12:03:36;;;;;;;7.82;3.83;;;15.70;96.70;;;;;;4923370;29;20646;-70
2024/02/14 12:06:07;;;;;;;6.55;4.00;;;15.70;96.70;;;;;;4907013;29;20417;-70
2024/02/14 12:08:38;;;;;;;7.30;4.60;;;15.80;96.70;;;;;;4894267;29;20052;-69
2024/02/14 12:11:07;;;;;;;6.78;4.30;;;16.00;96.70;;;;;;4907930;29;20504;-70
2024/02/14 12:13:37;;;;;;;9.52;4.72;;;16.00;96.70;;;;;;4906773;29;20497;-70
2024/02/14 12:16:07;;;;;;;6.75;4.85;;;16.00;96.70;;;;;;4920755;29;20563;-69
2024/02/14 12:18:35;;;;;;;7.82;3.80;;;16.10;96.70;;;;;;4900150;29;20727;-70
2024/02/14 12:21:07;;;;;;;7.22;3.80;;;16.30;96.70;;;;;;4917064;29;20060;-70
2024/02/14 12:23:36;;;;;;;6.72;3.90;;;16.40;96.70;;;;;;4906389;29;20068;-70
2024/02/14 12:26:06;;;;;;;6.47;3.90;;;16.30;96.70;;;;;;4893560;29;20051;-69
2024/02/14 12:28:36;;;;;;;6.30;3.70;;;16.40;96.70;;;;;;4879626;29;20066;-70
2024/02/14 12:31:05;;;;;;;6.53;3.63;;;16.50;96.70;;;;;;4887986;29;20059;-70
2024/02/14 12:33:35;;;;;;;5.68;3.67;;;16.60;96.70;;;;;;4906964;29;20680;-70
2024/02/14 12:36:10;;;;;;;6.50;3.83;;;16.70;96.70;;;;;;4908305;29;20144;-69
2024/02/14 12:38:39;;;;;;;5.75;3.67;;;16.70;96.70;;;;;;4899734;29;20524;-69
2024/02/14 12:41:10;;;;;;;5.13;3.40;;;16.90;96.70;;;;;;4890884;29;20087;-71
2024/02/14 12:43:38;;;;;;;5.75;3.92;;;17.00;96.70;;;;;;4909078;29;20052;-70
2024/02/14 12:46:07;;;;;;;5.85;4.30;;;17.10;96.70;;;;;;4905052;29;20104;-70
2024/02/14 12:48:35;;;;;;;7.60;3.95;;;17.20;96.70;;;;;;4921702;29;20060;-69
2024/02/14 12:51:07;;;;;;;8.23;3.80;;;17.40;96.70;;;;;;4929835;29;20051;-70
2024/02/14 12:53:36;;;;;;;4.10;3.10;;;17.50;96.70;;;;;;4915257;29;20163;-71
2024/02/14 12:56:06;;;;;;;5.53;3.60;;;17.50;96.70;;;;;;4927570;29;20799;-70
2024/02/14 12:58:35;;;;;;;6.85;4.35;;;17.60;96.70;;;;;;4913740;29;20122;-70
2024/02/14 13:01:07;;;;;;;8.77;4.20;;;17.50;96.70;;;;;;4912502;29;20166;-71
2024/02/14 13:03:36;;;;;;;6.45;4.25;;;17.40;96.70;;;;;;4894253;29;20116;-71
2024/02/14 13:06:06;;;;;;;6.00;3.95;;;17.50;96.70;;;;;;4912784;29;20044;-71
2024/02/14 13:08:38;;;;;;;7.40;4.10;;;17.60;96.70;;;;;;4931321;29;20741;-71
2024/02/14 13:11:08;;;;;;;7.18;4.18;;;17.70;96.70;;;;;;4929367;29;20067;-70